createdAt,value
2023-08-30T00:00:52.076Z,17.70
2023-08-30T00:03:54.214Z,17.70
2023-08-30T00:06:56.404Z,17.80
2023-08-30T00:10:00.224Z,17.80
2023-08-30T00:13:02.647Z,17.90
2023-08-30T00:16:04.940Z,17.80
2023-08-30T00:19:07.720Z,17.80
2023-08-30T00:22:09.805Z,17.80
2023-08-30T00:25:11.932Z,17.80
2023-08-30T00:28:14.056Z,17.50
2023-08-30T00:31:18.417Z,17.60
2023-08-30T00:34:20.613Z,17.70
2023-08-30T00:37:22.684Z,17.70
2023-08-30T00:40:25.909Z,17.60
2023-08-30T00:43:28.866Z,17.70
2023-08-30T00:46:32.785Z,17.70
2023-08-30T00:49:35.223Z,17.80
2023-08-30T00:52:37.478Z,17.60
2023-08-30T00:55:40.288Z,17.70
2023-08-30T00:58:42.879Z,17.70
2023-08-30T01:01:45.875Z,17.70
2023-08-30T01:04:48.508Z,17.60
2023-08-30T01:07:53.862Z,17.60
2023-08-30T01:11:10.692Z,17.60
2023-08-30T01:14:18.803Z,17.70
2023-08-30T01:17:24.269Z,17.60
2023-08-30T01:20:28.596Z,17.70
2023-08-30T01:23:59.699Z,17.60
2023-08-30T01:27:10.508Z,17.60
2023-08-30T01:30:14.245Z,17.40
2023-08-30T01:33:19.011Z,17.50
2023-08-30T01:36:21.442Z,17.50
2023-08-30T01:39:24.966Z,17.60
2023-08-30T01:42:29.753Z,17.60
2023-08-30T01:45:33.391Z,17.50
2023-08-30T01:48:37.181Z,17.50
2023-08-30T01:51:39.913Z,17.50
2023-08-30T01:54:43.895Z,17.70
2023-08-30T01:57:46.016Z,17.80
2023-08-30T02:00:48.049Z,17.70
2023-08-30T02:03:50.963Z,17.70
2023-08-30T02:07:01.620Z,17.70
2023-08-30T02:10:15.237Z,17.60
2023-08-30T02:13:18.953Z,17.70
2023-08-30T02:16:23.425Z,17.60
2023-08-30T02:19:26.370Z,17.60
2023-08-30T02:22:28.451Z,17.60
2023-08-30T02:25:30.712Z,17.60
2023-08-30T02:28:32.965Z,17.60
2023-08-30T02:31:35.352Z,17.70
2023-08-30T02:34:38.219Z,17.60
2023-08-30T02:37:40.712Z,17.60
2023-08-30T02:40:42.752Z,17.50
2023-08-30T02:43:44.869Z,17.50
2023-08-30T02:46:48.140Z,17.40
2023-08-30T02:49:50.363Z,17.50
2023-08-30T02:52:52.985Z,17.60
2023-08-30T02:55:55.141Z,17.50
2023-08-30T02:58:58.120Z,17.50
2023-08-30T03:02:00.763Z,17.50
2023-08-30T03:05:03.055Z,17.50
2023-08-30T03:08:05.440Z,17.40
2023-08-30T03:11:14.947Z,17.50
2023-08-30T03:14:22.808Z,17.50
2023-08-30T03:17:26.133Z,17.50
2023-08-30T03:20:29.020Z,17.50
2023-08-30T03:23:32.661Z,17.60
2023-08-30T03:26:37.084Z,17.60
2023-08-30T03:29:39.301Z,17.50
2023-08-30T03:32:41.684Z,17.50
2023-08-30T03:35:43.733Z,17.60
2023-08-30T03:38:47.173Z,17.50
2023-08-30T03:41:49.586Z,17.40
2023-08-30T03:44:51.863Z,17.50
2023-08-30T03:47:54.941Z,17.40
2023-08-30T03:50:57.562Z,17.40
2023-08-30T03:53:59.695Z,17.40
2023-08-30T03:57:01.927Z,17.40
2023-08-30T04:00:04.121Z,17.50
2023-08-30T04:03:17.062Z,17.50
2023-08-30T04:06:19.227Z,17.40
2023-08-30T04:09:24.334Z,17.40
2023-08-30T04:12:26.416Z,17.40
2023-08-30T04:15:28.839Z,17.50
2023-08-30T04:18:30.916Z,17.50
2023-08-30T04:21:32.995Z,17.40
2023-08-30T04:24:35.068Z,17.40
2023-08-30T04:27:37.672Z,17.40
2023-08-30T04:30:40.301Z,17.40
2023-08-30T04:33:43.695Z,17.40
2023-08-30T04:36:46.028Z,17.40
2023-08-30T04:39:49.474Z,17.40
2023-08-30T04:42:52.282Z,17.30
2023-08-30T04:45:54.994Z,17.40
2023-08-30T04:48:59.003Z,17.40
2023-08-30T04:52:01.091Z,17.40
2023-08-30T04:55:04.136Z,17.40
2023-08-30T04:58:07.289Z,17.40
2023-08-30T05:01:10.796Z,17.40
2023-08-30T05:04:16.596Z,17.40
2023-08-30T05:07:18.627Z,17.50
2023-08-30T05:10:21.798Z,17.50
2023-08-30T05:13:24.499Z,17.50
2023-08-30T05:16:26.657Z,17.40
2023-08-30T05:19:29.722Z,17.50
2023-08-30T05:22:32.488Z,17.60
2023-08-30T05:25:34.494Z,17.50
2023-08-30T05:28:38.088Z,17.50
2023-08-30T05:31:41.804Z,17.50
2023-08-30T05:35:16.334Z,17.60
2023-08-30T05:38:40.506Z,17.60
2023-08-30T05:41:51.245Z,17.50
2023-08-30T05:44:54.787Z,17.60
2023-08-30T05:47:56.910Z,17.60
2023-08-30T05:50:58.992Z,17.50
2023-08-30T05:54:01.051Z,17.70
2023-08-30T05:57:03.354Z,17.70
2023-08-30T06:00:08.309Z,17.80
2023-08-30T06:03:15.659Z,17.90
2023-08-30T06:06:17.902Z,17.90
2023-08-30T06:09:20.311Z,17.90
2023-08-30T06:12:22.442Z,17.90
2023-08-30T06:15:24.752Z,18.00
2023-08-30T06:18:30.849Z,18.00
2023-08-30T06:21:38.257Z,18.00
2023-08-30T06:24:40.549Z,18.00
2023-08-30T06:27:44.142Z,18.20
2023-08-30T06:30:46.183Z,18.40
2023-08-30T06:33:48.159Z,18.40
2023-08-30T06:36:50.500Z,18.40
2023-08-30T06:39:56.592Z,18.60
2023-08-30T06:42:59.095Z,18.90
2023-08-30T06:46:01.083Z,19.20
2023-08-30T06:49:03.127Z,19.30
2023-08-30T06:52:05.528Z,19.50
2023-08-30T06:55:08.238Z,19.60
2023-08-30T06:58:10.507Z,19.80
2023-08-30T07:01:12.924Z,20.00
2023-08-30T07:04:15.549Z,20.10
2023-08-30T07:07:17.856Z,20.30
2023-08-30T07:10:24.732Z,20.50
2023-08-30T07:13:26.992Z,20.60
2023-08-30T07:16:29.084Z,20.70
2023-08-30T07:19:31.279Z,20.90
2023-08-30T07:22:33.359Z,21.00
2023-08-30T07:25:35.368Z,21.20
2023-08-30T07:28:37.367Z,21.50
2023-08-30T07:31:39.511Z,21.50
2023-08-30T07:34:41.527Z,21.70
2023-08-30T07:37:43.828Z,21.80
2023-08-30T07:40:45.867Z,21.90
2023-08-30T07:43:48.054Z,22.00
2023-08-30T07:46:50.120Z,22.10
2023-08-30T07:49:52.177Z,22.30
2023-08-30T07:52:54.317Z,22.20
2023-08-30T07:55:57.098Z,22.30
2023-08-30T07:58:59.562Z,22.50
2023-08-30T08:02:01.818Z,22.50
2023-08-30T08:05:03.945Z,22.70
2023-08-30T08:08:06.317Z,22.70
2023-08-30T08:11:09.037Z,22.80
2023-08-30T08:14:12.350Z,22.60
2023-08-30T08:17:14.561Z,22.70
2023-08-30T08:20:16.659Z,22.70
2023-08-30T08:23:19.055Z,23.00
2023-08-30T08:26:23.413Z,23.10
2023-08-30T08:29:25.468Z,23.00
2023-08-30T08:32:27.713Z,23.40
2023-08-30T08:35:29.903Z,23.20
2023-08-30T08:38:34.655Z,23.70
2023-08-30T08:41:45.387Z,23.50
2023-08-30T08:44:55.669Z,23.10
2023-08-30T08:47:57.916Z,22.80
2023-08-30T08:51:01.227Z,22.60
2023-08-30T08:54:05.727Z,22.50
2023-08-30T08:57:08.802Z,22.40
2023-08-30T09:00:11.331Z,22.00
2023-08-30T09:03:15.825Z,22.00
2023-08-30T09:06:28.903Z,22.00
2023-08-30T09:09:32.231Z,22.00
2023-08-30T09:12:37.074Z,22.00
2023-08-30T09:15:39.149Z,21.80
2023-08-30T09:18:50.673Z,21.90
2023-08-30T09:22:00.681Z,21.90
2023-08-30T09:25:03.023Z,21.50
2023-08-30T09:28:05.326Z,21.60
2023-08-30T09:31:21.268Z,21.40
2023-08-30T09:34:25.795Z,21.50
2023-08-30T09:37:27.829Z,21.50
2023-08-30T09:40:29.839Z,21.50
2023-08-30T09:43:34.097Z,21.50
2023-08-30T09:46:51.471Z,21.70
2023-08-30T09:49:56.903Z,21.70
2023-08-30T09:52:59.083Z,21.60
2023-08-30T09:56:02.233Z,21.50
2023-08-30T09:59:06.224Z,21.70
2023-08-30T10:02:09.982Z,21.90
2023-08-30T10:05:13.337Z,21.80
2023-08-30T10:08:15.772Z,21.60
2023-08-30T10:11:19.713Z,21.50
2023-08-30T10:14:26.581Z,21.60
2023-08-30T10:17:33.865Z,21.70
2023-08-30T10:20:38.349Z,21.70
2023-08-30T10:23:41.876Z,21.80
2023-08-30T10:26:46.863Z,21.90
2023-08-30T10:29:50.929Z,22.00
2023-08-30T10:32:53.058Z,22.40
2023-08-30T10:35:55.079Z,22.70
2023-08-30T10:38:57.471Z,22.90
2023-08-30T10:41:59.834Z,23.60
2023-08-30T10:48:13.987Z,24.70
2023-08-30T11:03:22.795Z,25.60
2023-08-30T11:06:24.906Z,25.30
2023-08-30T11:09:26.975Z,25.40
2023-08-30T11:12:29.021Z,25.30
2023-08-30T11:15:31.104Z,25.50
2023-08-30T11:18:38.697Z,25.30
2023-08-30T11:21:44.960Z,25.40
2023-08-30T11:24:49.221Z,24.90
2023-08-30T11:27:51.596Z,25.20
2023-08-30T11:30:57.219Z,24.80
2023-08-30T11:34:00.582Z,24.60
2023-08-30T11:37:02.680Z,24.80
2023-08-30T11:40:06.464Z,24.50
2023-08-30T11:43:09.261Z,24.30
2023-08-30T11:46:11.690Z,24.50
2023-08-30T11:49:14.877Z,24.80
2023-08-30T11:52:18.633Z,24.80
2023-08-30T11:55:22.771Z,24.90
2023-08-30T11:58:24.850Z,25.00
2023-08-30T12:01:26.996Z,25.00
2023-08-30T12:04:29.201Z,25.30
2023-08-30T12:07:31.262Z,25.40
2023-08-30T12:10:34.875Z,24.90
2023-08-30T12:13:36.934Z,25.10
2023-08-30T12:16:38.997Z,25.00
2023-08-30T12:19:41.079Z,25.30
2023-08-30T12:22:43.666Z,25.30
2023-08-30T12:25:46.341Z,25.10
2023-08-30T12:28:48.588Z,25.40
2023-08-30T12:31:50.816Z,25.20
2023-08-30T12:34:56.455Z,25.20
2023-08-30T12:38:02.506Z,25.20
2023-08-30T12:41:04.600Z,25.20
2023-08-30T12:44:06.823Z,25.20
2023-08-30T12:47:09.684Z,25.10
2023-08-30T12:50:12.422Z,25.00
2023-08-30T12:53:15.019Z,25.00
2023-08-30T12:56:17.080Z,24.70
2023-08-30T12:59:19.474Z,24.70
2023-08-30T13:02:21.934Z,25.00
2023-08-30T13:05:24.086Z,24.80
2023-08-30T13:08:28.957Z,24.40
2023-08-30T13:11:31.178Z,24.30
2023-08-30T13:14:33.236Z,24.70
2023-08-30T13:17:35.357Z,24.90
2023-08-30T13:20:40.460Z,25.00
2023-08-30T13:23:44.790Z,24.80
2023-08-30T13:26:46.811Z,24.90
2023-08-30T13:29:48.927Z,24.90
2023-08-30T13:32:51.168Z,24.70
2023-08-30T13:35:53.383Z,24.80
2023-08-30T13:38:55.435Z,24.70
2023-08-30T13:45:05.110Z,24.70
2023-08-30T13:48:07.395Z,24.90
2023-08-30T13:51:09.872Z,24.80
2023-08-30T13:54:12.263Z,24.70
2023-08-30T13:57:14.318Z,24.70
2023-08-30T14:00:16.812Z,24.80
2023-08-30T14:03:19.147Z,24.90
2023-08-30T14:06:21.299Z,24.70
2023-08-30T14:09:24.100Z,24.50
2023-08-30T14:12:26.319Z,24.20
2023-08-30T14:15:28.806Z,24.20
2023-08-30T14:18:31.277Z,24.50
2023-08-30T14:21:33.883Z,24.50
2023-08-30T14:24:42.845Z,24.60
2023-08-30T14:27:49.213Z,24.50
2023-08-30T14:30:51.260Z,24.40
2023-08-30T14:33:56.234Z,24.40
2023-08-30T14:36:58.232Z,24.30
2023-08-30T14:40:01.105Z,24.50
2023-08-30T14:43:06.449Z,24.40
2023-08-30T14:46:12.909Z,24.30
2023-08-30T14:49:16.834Z,24.30
2023-08-30T14:52:19.789Z,24.30
2023-08-30T14:55:22.435Z,24.40
2023-08-30T14:58:24.667Z,24.50
2023-08-30T15:01:26.965Z,24.50
2023-08-30T15:04:29.316Z,24.50
2023-08-30T15:07:31.355Z,24.60
2023-08-30T15:10:33.928Z,24.40
2023-08-30T15:13:36.647Z,24.40
2023-08-30T15:16:38.867Z,24.20
2023-08-30T15:19:42.046Z,24.30
2023-08-30T15:22:44.939Z,24.30
2023-08-30T15:25:48.205Z,24.30
2023-08-30T15:28:50.477Z,24.30
2023-08-30T15:31:52.644Z,24.20
2023-08-30T15:34:55.052Z,24.20
2023-08-30T15:37:58.622Z,24.00
2023-08-30T15:41:01.264Z,24.00
2023-08-30T15:44:03.697Z,24.00
2023-08-30T15:47:06.034Z,24.10
2023-08-30T15:50:09.091Z,24.00
2023-08-30T15:53:11.317Z,23.90
2023-08-30T15:56:13.448Z,23.90
2023-08-30T15:59:15.601Z,23.90
2023-08-30T16:02:18.493Z,23.90
2023-08-30T16:05:20.800Z,23.80
2023-08-30T16:08:22.993Z,23.70
2023-08-30T16:11:25.169Z,23.80
2023-08-30T16:14:27.336Z,23.70
2023-08-30T16:17:29.522Z,23.50
2023-08-30T16:20:32.732Z,23.40
2023-08-30T16:23:35.229Z,23.40
2023-08-30T16:26:38.007Z,23.40
2023-08-30T16:29:40.178Z,23.30
2023-08-30T16:32:42.439Z,23.30
2023-08-30T16:35:44.687Z,23.30
2023-08-30T16:38:46.773Z,23.30
2023-08-30T16:41:48.868Z,23.30
2023-08-30T16:44:50.964Z,23.20
2023-08-30T16:48:06.562Z,23.10
2023-08-30T16:51:10.244Z,23.20
2023-08-30T16:54:12.378Z,23.00
2023-08-30T16:57:15.176Z,23.10
2023-08-30T17:00:18.012Z,23.20
2023-08-30T17:03:20.232Z,23.20
2023-08-30T17:06:23.573Z,23.10
2023-08-30T17:09:25.752Z,23.00
2023-08-30T17:12:27.905Z,22.90
2023-08-30T17:15:30.295Z,22.90
2023-08-30T17:18:32.416Z,22.70
2023-08-30T17:21:35.328Z,22.70
2023-08-30T17:24:37.603Z,22.50
2023-08-30T17:27:42.129Z,22.60
2023-08-30T17:30:44.622Z,22.40
2023-08-30T17:33:46.620Z,22.40
2023-08-30T17:36:48.793Z,22.40
2023-08-30T17:39:50.983Z,22.30
2023-08-30T17:42:55.270Z,22.40
2023-08-30T17:46:00.759Z,22.40
2023-08-30T17:49:05.018Z,22.20
2023-08-30T17:52:07.352Z,22.10
2023-08-30T17:55:10.007Z,22.10
2023-08-30T17:58:12.403Z,22.00
2023-08-30T18:01:14.502Z,22.00
2023-08-30T18:04:16.589Z,22.00
2023-08-30T18:07:18.736Z,22.00
2023-08-30T18:10:23.539Z,21.90
2023-08-30T18:13:25.646Z,21.90
2023-08-30T18:16:29.206Z,21.90
2023-08-30T18:22:45.434Z,21.90
2023-08-30T18:25:47.816Z,21.90
2023-08-30T18:28:50.239Z,21.80
2023-08-30T18:31:52.633Z,21.80
2023-08-30T18:35:01.708Z,21.80
2023-08-30T18:38:03.930Z,21.80
2023-08-30T18:44:14.982Z,21.30
2023-08-30T18:47:21.762Z,20.90
2023-08-30T18:50:25.061Z,20.50
2023-08-30T18:53:27.168Z,20.30
2023-08-30T18:56:31.880Z,20.00
2023-08-30T18:59:34.232Z,20.00
2023-08-30T19:02:36.805Z,19.70
2023-08-30T19:05:39.174Z,19.50
2023-08-30T19:08:42.102Z,19.40
2023-08-30T19:11:44.556Z,19.40
2023-08-30T19:14:49.535Z,19.50
2023-08-30T19:17:52.296Z,19.40
2023-08-30T19:21:01.556Z,19.30
2023-08-30T19:24:04.326Z,19.20
2023-08-30T19:27:07.700Z,19.20
2023-08-30T19:30:11.866Z,19.10
2023-08-30T19:33:14.578Z,19.00
2023-08-30T19:36:17.430Z,19.00
2023-08-30T19:39:19.486Z,19.00
2023-08-30T19:42:21.468Z,19.00
2023-08-30T19:45:23.766Z,18.90
2023-08-30T19:48:26.128Z,19.00
2023-08-30T19:51:28.157Z,18.90
2023-08-30T19:54:30.321Z,19.10
2023-08-30T19:57:32.479Z,19.00
2023-08-30T20:00:34.578Z,18.90
2023-08-30T20:03:36.735Z,19.00
2023-08-30T20:06:38.920Z,19.00
2023-08-30T20:09:42.519Z,18.90
2023-08-30T20:12:45.419Z,18.90
2023-08-30T20:15:57.472Z,19.00
2023-08-30T20:19:00.060Z,19.10
2023-08-30T20:22:02.034Z,19.10
2023-08-30T20:25:04.066Z,19.20
2023-08-30T20:28:09.056Z,19.20
2023-08-30T20:31:11.664Z,19.10
2023-08-30T20:34:14.586Z,19.00
2023-08-30T20:37:16.818Z,19.00
2023-08-30T20:40:20.392Z,18.90
2023-08-30T20:43:25.813Z,18.90
2023-08-30T20:46:28.106Z,19.00
2023-08-30T20:49:30.199Z,19.10
2023-08-30T20:52:32.199Z,18.90
2023-08-30T20:55:42.626Z,19.00
2023-08-30T20:58:46.159Z,18.90
2023-08-30T21:01:48.345Z,18.80
2023-08-30T21:04:50.452Z,18.80
2023-08-30T21:07:52.440Z,18.80
2023-08-30T21:10:54.494Z,18.70
2023-08-30T21:13:56.796Z,18.60
2023-08-30T21:16:59.010Z,18.60
2023-08-30T21:20:01.134Z,18.60
2023-08-30T21:23:03.660Z,18.50
2023-08-30T21:26:08.549Z,18.50
2023-08-30T21:29:10.851Z,18.40
2023-08-30T21:32:15.240Z,18.40
2023-08-30T21:35:17.712Z,18.30
2023-08-30T21:38:20.017Z,18.40
2023-08-30T21:41:22.755Z,18.30
2023-08-30T21:44:24.863Z,18.40
2023-08-30T21:47:26.948Z,18.20
2023-08-30T21:50:29.059Z,18.30
2023-08-30T21:53:31.476Z,18.30
2023-08-30T21:56:33.710Z,18.40
2023-08-30T21:59:35.888Z,18.30
2023-08-30T22:02:38.117Z,18.10
2023-08-30T22:05:40.127Z,18.10
2023-08-30T22:08:42.730Z,18.00
2023-08-30T22:11:44.872Z,18.00
2023-08-30T22:14:49.809Z,18.00
2023-08-30T22:17:52.987Z,17.90
2023-08-30T22:20:55.215Z,18.10
2023-08-30T22:24:00.981Z,18.00
2023-08-30T22:27:11.546Z,17.90
2023-08-30T22:30:16.243Z,17.90
2023-08-30T22:33:18.625Z,17.90
2023-08-30T22:36:21.202Z,17.90
2023-08-30T22:39:23.277Z,17.90
2023-08-30T22:42:25.857Z,18.00
2023-08-30T22:45:28.144Z,18.00
2023-08-30T22:48:32.541Z,17.90
2023-08-30T22:51:44.195Z,17.90
2023-08-30T22:54:55.716Z,17.90
2023-08-30T22:57:58.141Z,18.00
2023-08-30T23:01:03.586Z,17.80
2023-08-30T23:04:08.286Z,17.80
2023-08-30T23:07:10.530Z,17.90
2023-08-30T23:10:12.640Z,17.80
2023-08-30T23:13:14.994Z,17.70
2023-08-30T23:16:17.322Z,17.60
2023-08-30T23:19:19.466Z,17.70
2023-08-30T23:22:21.846Z,17.60
2023-08-30T23:25:23.796Z,17.70
2023-08-30T23:28:25.926Z,17.70
2023-08-30T23:31:32.500Z,17.50
2023-08-30T23:34:34.542Z,17.60
2023-08-30T23:37:36.792Z,17.60
2023-08-30T23:40:38.877Z,17.70
2023-08-30T23:43:40.912Z,17.70
2023-08-30T23:46:42.982Z,17.60
2023-08-30T23:49:45.056Z,17.70
2023-08-30T23:52:47.180Z,17.70
2023-08-30T23:55:50.217Z,17.90
2023-08-30T23:58:52.209Z,18.00
